Address 0x19397330461cc30d16ca680d178a29b8d4d62db3

Overview

Balance:
2.809017978635253635 MATIC

Token:
My Name Tag:
Not Available

Txn Hash
Method
Block
From
To
Value [Txn Fee]
0x2def881dba87a0623e343e53322c490fc7becfe2e52c4894fc7bea24fd8bfe78Create Token258779872022-04-10 18:12:24295 days 3 hrs ago0x19397330461cc30d16ca680d178a29b8d4d62db3OUT 0x98c8a84344f80f852d65f8025440a3faea27cd391 wei0.005815345365 2.892216677
0x899dc7e5c9343dbab77360bac2cbd4fdc1842f203d65106af910386b7f33fbdfCreate Token249589102022-02-15 11:23:37349 days 9 hrs ago0x19397330461cc30d16ca680d178a29b8d4d62db3OUT 0x0f3a4b199211b14ed334f87ef5acea13aba330a51 wei0.001806874 2
0x4fa3faa47f8bea7306f52dfe8d490028ca77c705689cc49829024403700945d00x772d0f3c247274792022-02-08 16:08:22356 days 5 hrs ago0x19397330461cc30d16ca680d178a29b8d4d62db3OUT 0x29cef0d91bf580a07cbf5cc72381186e3d764a8a1 wei0.001832871998 1.999999998
0x03bf69103e5bb461e311261ff39a82e7ceeac5953795d4d4f8a5e2e5d52ace15Auto Mint243250342022-01-27 20:07:25368 days 1 hr ago0x19397330461cc30d16ca680d178a29b8d4d62db3OUT 0xbb49df0842950f7e6e4bfc85740721d17503485f0 MATIC0.000481557999 1.999999996
0x2a5dfa7b6afc91e88fd7620abdad51cffd9d1b3eeeb0ff554f84fd84b4204ef8Auto Mint243248752022-01-27 20:01:59368 days 1 hr ago0x19397330461cc30d16ca680d178a29b8d4d62db3OUT 0xbb49df0842950f7e6e4bfc85740721d17503485f0 MATIC0.000452957999 1.999999999
0xeadc732724d82126c0bfb090e9e58138bd350e130f3e1d22dcb40984f02340a0Auto Mint242589192022-01-25 19:40:19370 days 1 hr ago0x19397330461cc30d16ca680d178a29b8d4d62db3OUT 0xbb49df0842950f7e6e4bfc85740721d17503485f0 MATIC0.000481558 2
0x66ad1776d49a06d908c44f20d3ff57778795b3f30047f9aa91b3e174e71f9e92Auto Mint242588832022-01-25 19:37:55370 days 1 hr ago0x19397330461cc30d16ca680d178a29b8d4d62db3OUT 0xbb49df0842950f7e6e4bfc85740721d17503485f0 MATIC0.000452958 2
0x39c9ed53459d0764c8a2cc0a657bf418aed3b3447f90083e1def6fbd79b7a3d9Transfer242584742022-01-25 19:21:33370 days 1 hr ago0x19397330461cc30d16ca680d178a29b8d4d62db3OUT 0x795197f4a99c14309d8f68e650a9f871ba54d4180 MATIC0.0001079082
0x69332cd657ce4a84ee2f9b6992139ff3d9f835e57efbea0af5f846bae9efd11bTransfer242577112022-01-25 18:51:03370 days 2 hrs ago0x19397330461cc30d16ca680d178a29b8d4d62db3OUT 0x795197f4a99c14309d8f68e650a9f871ba54d4180 MATIC0.0001078842
0x2f4a911af1004e021fbb02402e555badd52db4824033b8295f9763c0b55ed20aTransfer From242529282022-01-25 15:36:49370 days 5 hrs ago0x19397330461cc30d16ca680d178a29b8d4d62db3OUT 0xbb49df0842950f7e6e4bfc85740721d17503485f0 MATIC0.000206336 2.000000001
0xfdfcf7fe9731c4732a5edf1328934c4286756b8c308ba05d49fccda8a4dbad1aAuto Mint242515912022-01-25 14:42:19370 days 6 hrs ago0x19397330461cc30d16ca680d178a29b8d4d62db3OUT 0xbb49df0842950f7e6e4bfc85740721d17503485f0 MATIC0.000481557999 1.999999999
0xeb4806c15ef70d255ab1ed4ddaaf7adaba4a02f677705453d480acf20090470fTransfer From242511312022-01-25 14:24:19370 days 6 hrs ago0x19397330461cc30d16ca680d178a29b8d4d62db3OUT 0xbb49df0842950f7e6e4bfc85740721d17503485f0 MATIC0.000206336 2
0xc79a5a4a7da94ff1617a1e0418b36cd0482deeef06b43c439b0e618ec07ba138Transfer242491612022-01-25 13:02:03370 days 8 hrs ago0x19397330461cc30d16ca680d178a29b8d4d62db3OUT 0x795197f4a99c14309d8f68e650a9f871ba54d4180 MATIC0.00010786 2
0xaa486b154df27e681fe44ceab7b43d2f2b97a0a4c99dd0ee8624719a91854100Create Token242490802022-01-25 12:58:53370 days 8 hrs ago0x19397330461cc30d16ca680d178a29b8d4d62db3OUT 0x98c8a84344f80f852d65f8025440a3faea27cd391 wei0.00405572 2
0xec66ad2874b5e84361e9a5b0d528f8d5c3b897e4844b5b1a829a914912f9dc3eAuto Mint242471632022-01-25 11:35:55370 days 9 hrs ago0x19397330461cc30d16ca680d178a29b8d4d62db3OUT 0xbb49df0842950f7e6e4bfc85740721d17503485f0 MATIC0.000510182 2
0xcb8f5a95342899f1b16f63ec72ecdc71cd16f0185c02c78683ab30b50ec346370xc2772152242470632022-01-25 11:31:11370 days 9 hrs ago0x19397330461cc30d16ca680d178a29b8d4d62db3OUT 0x9d984f165220f202676b0fc369bd6664276a3f5e1 wei0.007266862 2
0x7b3057a65b8fffdd0adfd28caf477b46b080c5c1856fdf3c27fa8164a1be1bd4Create Contract242469352022-01-25 11:25:59370 days 9 hrs ago0x19397330461cc30d16ca680d178a29b8d4d62db3OUT 0xd66cab3c4129dcba175e49a814802c9bfcde64491 wei0.008345364 2
0x6294873eba6390678580302d3dfd94d9339a39c8fb7ab9e5c2cccc9bfae98adeUpdate Admin241782252022-01-23 10:38:15372 days 10 hrs ago0x19397330461cc30d16ca680d178a29b8d4d62db3OUT 0x71956d4b6f838767a144d22020dbf3485ad9e9a30 MATIC0.000061835999 1.999999997
0xdedcc6ee4965588cdc5b326600000c909422c7bdd4e4897a9ae36c45b42efe8cUpdate Admin241782052022-01-23 10:36:55372 days 10 hrs ago0x19397330461cc30d16ca680d178a29b8d4d62db3OUT 0x71956d4b6f838767a144d22020dbf3485ad9e9a30 MATIC0.000101635999 1.999999997
0x2f38e1b1a4ed52c6685dd52b0ca8ba7c02c4dd8e86d993e99eafea3614367f10Bid241780832022-01-23 10:30:47372 days 10 hrs ago0x19397330461cc30d16ca680d178a29b8d4d62db3OUT 0x71956d4b6f838767a144d22020dbf3485ad9e9a30.2 MATIC0.000164803999 1.999999997
0xed4f1f061f33b19a6a6b33981cd524c304bd85d90a10c323fe5109f638504353Sell241779882022-01-23 10:24:23372 days 10 hrs ago0x19397330461cc30d16ca680d178a29b8d4d62db3OUT 0x71956d4b6f838767a144d22020dbf3485ad9e9a30 MATIC0.000191143999 1.999999997
0x01c99e564da58f8f52d718be8007e2cc1fbaad021a0335ace3cb9057478c4549Auto Mint241779492022-01-23 10:22:51372 days 10 hrs ago0x19397330461cc30d16ca680d178a29b8d4d62db3OUT 0x71956d4b6f838767a144d22020dbf3485ad9e9a30 MATIC0.000514721999 1.999999997
0xc9636c1bcdffe053f509c4d33a68f8add19f8e20d473a24efd77ab9f131c7cc60xc2772152241778472022-01-23 10:16:55372 days 10 hrs ago0x19397330461cc30d16ca680d178a29b8d4d62db3OUT 0x9d984f165220f202676b0fc369bd6664276a3f5e1 wei0.007227746003 2.000000001
[ Download CSV Export 
Latest 8 internal transactions
Parent Txn Hash Block From To Value
0x7673fc91affab5e7bb297d57c4d3f7175b7f8fa4a61813aaf981d40e92817a2f242485392022-01-25 12:36:03370 days 8 hrs ago 0x7f092e65c688a509737fcd8d0998dd12208f52970x19397330461cc30d16ca680d178a29b8d4d62db30.5 MATIC
0x337f97cb36e2ff62ee5b09b80e2b8ce8eb2d1a73ebdc4fadef744dade4a2ca6f242474992022-01-25 11:50:03370 days 9 hrs ago 0x7f092e65c688a509737fcd8d0998dd12208f52970x19397330461cc30d16ca680d178a29b8d4d62db30.5 MATIC
0xdd800706aaed07ab08596b3f9429d5f5b1a5a2ace60d4bea2a62de6dd071654c242467222022-01-25 11:16:33370 days 9 hrs ago 0x7f092e65c688a509737fcd8d0998dd12208f52970x19397330461cc30d16ca680d178a29b8d4d62db30.5 MATIC
0x12f56dbdc2a02ac06a8e7b5ca50ef4b75dfcaa97d93550d63cd5c2da8d2e15c3241786972022-01-23 11:03:51372 days 10 hrs ago 0x7f092e65c688a509737fcd8d0998dd12208f52970x19397330461cc30d16ca680d178a29b8d4d62db30.5 MATIC
0x825c4e9c67d1c79970207b22aefd45a2abd04e92f3baeccf4fe4e23feb72a080241780172022-01-23 10:26:19372 days 10 hrs ago 0x71956d4b6f838767a144d22020dbf3485ad9e9a30x19397330461cc30d16ca680d178a29b8d4d62db30.015 MATIC
0x825c4e9c67d1c79970207b22aefd45a2abd04e92f3baeccf4fe4e23feb72a080241780172022-01-23 10:26:19372 days 10 hrs ago 0x71956d4b6f838767a144d22020dbf3485ad9e9a30x19397330461cc30d16ca680d178a29b8d4d62db30.035 MATIC
0x2153b7df31107c1f8993f6f579ce63fdb68c43738f98ad6c6fa2e2f629cf0e66241780072022-01-23 10:25:39372 days 10 hrs ago 0x7f092e65c688a509737fcd8d0998dd12208f52970x19397330461cc30d16ca680d178a29b8d4d62db30.5 MATIC
0x823ed903f6c45de4d5edfd07440f6991559a177943e246c7e75cb15b5c4db182241777462022-01-23 10:11:37372 days 11 hrs ago 0x7f092e65c688a509737fcd8d0998dd12208f52970x19397330461cc30d16ca680d178a29b8d4d62db30.5 MATIC
[ Download CSV Export 
Loading

Contract Name:
0 MATIC

Compiler Version
0

Optimization Enabled:
0 MATIC

Other Settings:
-NA-
Block Transaction Gas Used Reward
Age Block Fee Address BC Fee Address Voting Power Jailed Incoming
Block Uncle Number Difficulty Gas Used Reward
Loading